Billings (BIL/KBIL)

Map

Destinations

Information

Location
Billings, MT
Local Time
12:14 / 12:14 pm
GMT Time
18:14 / 6:14 pm
Gates
B1
No FAA reported delays
METAR KBIL 201753Z 22014G25KT 10SM FEW090 SCT160 16/M03 A2962 RMK AO2 SLP019 ACSL SW-W DSNT NW-NE T01611028 10161 20061 58017
TAF KBIL 201732Z 2018/2118 22018G31KT P6SM BKN080 FM202100 25018G30KT P6SM BKN080 FM210300 25010KT P6SM SCT080 FM210600 27007KT P6SM VCSH BKN070